Candido Aguilar, Mexico

3:57 PM CST on February 22, 2017 (GMT -0600)
Gen Lucio Blanco | | Change Station

Elev 128 ft 26.02 °N, 98.23 °W | Updated 1 hour ago

Clear
Clear
90 °F
Feels Like 90 °F
N
4
Wind Variable Wind from NNE

Today
High -- | Low -- °F
--% Chance of Precip.
Yesterday
High -- | Low -- °F
Precip. -- in
Pressure 29.88 in
Visibility 8.0 miles
Clouds Clear
Dew Point 21 °F
Humidity 8%
Rainfall 0.00 in
Snow Depth Not available.
7:01 AM 6:30 PM
Waning Crescent, 15% visible
METAR MMRX 222041Z 02003KT 8SM SKC 32/M06 A2984 RMK SLP116 57021 980 HZY FU
Pressure 29.88 in
Visibility 8.0 miles
Clouds Clear
Dew Point 21 °F
Humidity 8%
Rainfall 0.00 in
Snow Depth Not available.
7:01 AM 6:30 PM
Waning Crescent, 15% visible
METAR MMRX 222041Z 02003KT 8SM SKC 32/M06 A2984 RMK SLP116 57021 980 HZY FU

Get Your Daily Forecast Email!

Thanks for signing up!

Be on the lookout for a verification email in your inbox.

You'll start receiving the daily forecast at 8 AM.

×

10-Day Weather Forecast

No radar image for this location.
×

Almanac

Astronomy

Feb. 22, 2017 Rise Set
Actual Time
Civil Twilight
Nautical Twilight
Astronomical Twilight
Moon
Length of Visible Light
Length of Day
Tomorrow will be .
, % of the Moon is Illuminated

Today's Extremes

Country Highs Country Lows

Community

WunderPhotos

Upload Photos

1,962,540 photos uploaded!

WunderBlog® & News

Nearby

Air Quality

  Air Quality AQ Index Pollutant
Not available.

Snow Depth

Station Depth Elevation

Earthquake Activity

City Distance Mag. Time & Date
Minimum magnitude displayed is 2.5.

Coastal Water Temperatures

Place Temperature

Stations

Nearby Weather Stations

Station Location Temp. Windchill Dew Point Humidity Wind Precip. Elev Updated Type